Time;durP1;ratioP1;P1;durP2;ratioP2;P2;SDS_P1;SDS_P2;PMS_P1;PMS_P2;Temp;Humidity;BMP_temperature;BMP_pressure;BME280_temperature;BME280_humidity;BME280_pressure;Samples;Min_cycle;Max_cycle;Signal;HPM_P1;HPM_P2
2024/03/21 00:00:30;;;;;;;20.43;5.50;;;10.40;99.90;;;;;;5041092;28;20193;-86
2024/03/21 00:02:57;;;;;;;18.13;5.40;;;10.40;99.90;;;;;;5040819;28;20173;-86
2024/03/21 00:05:23;;;;;;;17.92;4.88;;;10.30;99.90;;;;;;5041347;28;20407;-85
2024/03/21 00:07:49;;;;;;;17.90;5.90;;;10.40;99.90;;;;;;5041151;28;20180;-86
2024/03/21 00:10:20;;;;;;;20.70;6.03;;;10.40;99.90;;;;;;5058516;28;20166;-86
2024/03/21 00:12:47;;;;;;;19.02;5.80;;;10.30;99.90;;;;;;5041693;28;20603;-86
2024/03/21 00:15:13;;;;;;;21.80;6.15;;;10.30;99.90;;;;;;5058822;28;20200;-86
2024/03/21 00:17:39;;;;;;;18.83;5.07;;;10.10;99.90;;;;;;5040331;28;20181;-86
2024/03/21 00:20:12;;;;;;;25.20;5.00;;;10.10;99.90;;;;;;5058841;28;20162;-86
2024/03/21 00:22:39;;;;;;;18.80;5.20;;;10.10;99.90;;;;;;5041206;28;20239;-84
2024/03/21 00:25:05;;;;;;;18.08;5.85;;;10.20;99.90;;;;;;5041051;28;20542;-84
2024/03/21 00:27:35;;;;;;;21.58;5.93;;;10.20;99.90;;;;;;5041111;28;20166;-84
2024/03/21 00:30:02;;;;;;;20.23;5.93;;;10.10;99.90;;;;;;5040355;28;20161;-86
2024/03/21 00:32:28;;;;;;;18.92;6.18;;;10.00;99.90;;;;;;5058340;28;20192;-86
2024/03/21 00:34:54;;;;;;;18.47;5.77;;;9.90;99.90;;;;;;5057988;28;20554;-86
2024/03/21 00:37:21;;;;;;;20.33;6.38;;;10.00;99.90;;;;;;5040417;28;20165;-86
2024/03/21 00:39:48;;;;;;;18.50;6.32;;;9.90;99.90;;;;;;5057864;28;20165;-86
2024/03/21 00:42:15;;;;;;;22.10;6.00;;;9.90;99.90;;;;;;5058336;28;20184;-86
2024/03/21 00:44:41;;;;;;;18.27;5.40;;;9.90;99.90;;;;;;5058070;28;20161;-86
2024/03/21 00:47:07;;;;;;;18.33;5.47;;;9.90;99.90;;;;;;5040246;28;20169;-86
2024/03/21 00:49:33;;;;;;;20.42;5.40;;;10.00;99.90;;;;;;5058275;28;20427;-86
2024/03/21 00:51:59;;;;;;;22.15;6.75;;;10.00;99.90;;;;;;5058108;28;20185;-86
2024/03/21 00:54:25;;;;;;;19.80;6.33;;;10.10;99.90;;;;;;5057541;28;20193;-86
2024/03/21 00:56:51;;;;;;;23.23;6.90;;;10.10;99.90;;;;;;5039762;28;20180;-86
2024/03/21 00:59:16;;;;;;;21.50;8.30;;;10.00;99.90;;;;;;5057759;28;20228;-86
2024/03/21 01:01:42;;;;;;;20.33;6.60;;;10.00;99.90;;;;;;5057429;28;20227;-86
2024/03/21 01:04:08;;;;;;;21.10;5.97;;;10.00;99.90;;;;;;5057672;28;20435;-86
2024/03/21 01:06:34;;;;;;;18.67;6.50;;;9.80;99.90;;;;;;5039487;28;20165;-86
2024/03/21 01:09:00;;;;;;;17.58;5.50;;;9.90;99.90;;;;;;5057383;28;20396;-86
2024/03/21 01:11:26;;;;;;;17.63;6.00;;;9.90;99.90;;;;;;5058058;28;20218;-86
2024/03/21 01:13:51;;;;;;;27.73;7.03;;;10.00;99.90;;;;;;5067203;28;20611;-87
2024/03/21 01:16:18;;;;;;;17.90;7.00;;;10.00;99.90;;;;;;5052177;28;20197;-87
2024/03/21 01:18:43;;;;;;;21.65;6.78;;;10.00;99.90;;;;;;5052095;28;20162;-87
2024/03/21 01:21:09;;;;;;;22.97;6.47;;;10.10;99.90;;;;;;5069088;28;20192;-87
2024/03/21 01:23:38;;;;;;;20.75;6.88;;;10.20;99.90;;;;;;5051842;28;20665;-87
2024/03/21 01:26:04;;;;;;;20.55;5.90;;;10.20;99.90;;;;;;5069539;28;20236;-87
2024/03/21 01:28:30;;;;;;;21.92;6.78;;;10.20;99.90;;;;;;5051208;28;20172;-87
2024/03/21 01:30:59;;;;;;;18.43;5.10;;;10.30;99.90;;;;;;5051182;28;20257;-87
2024/03/21 01:33:25;;;;;;;18.75;5.95;;;10.40;99.90;;;;;;5068652;28;20442;-87
2024/03/21 01:35:51;;;;;;;18.83;5.35;;;10.40;99.90;;;;;;5051131;28;20210;-87
2024/03/21 01:38:17;;;;;;;19.93;5.63;;;10.30;99.90;;;;;;5068353;28;20638;-85
2024/03/21 01:40:42;;;;;;;23.13;7.23;;;10.20;99.90;;;;;;5050604;28;20185;-85
2024/03/21 01:43:22;;;;;;;18.27;5.90;;;10.10;99.90;;;;;;5069606;28;20176;-87
2024/03/21 01:46:17;;;;;;;17.77;5.13;;;10.10;99.90;;;;;;5068867;28;20181;-87
2024/03/21 01:48:45;;;;;;;20.65;6.55;;;10.00;99.90;;;;;;5068196;28;20162;-87
2024/03/21 01:51:13;;;;;;;17.20;5.63;;;10.00;99.90;;;;;;5050948;28;20197;-87
2024/03/21 01:53:41;;;;;;;20.90;6.32;;;10.00;99.90;;;;;;5049188;28;20193;-87
2024/03/21 01:56:07;;;;;;;20.50;6.05;;;10.00;99.90;;;;;;5049677;28;20233;-87
2024/03/21 01:58:33;;;;;;;19.13;6.40;;;10.00;99.90;;;;;;5049631;28;20169;-87
2024/03/21 02:01:23;;;;;;;33.50;5.33;;;10.00;99.90;;;;;;5067403;28;20192;-87
2024/03/21 02:03:52;;;;;;;20.83;6.32;;;10.00;99.90;;;;;;5050170;28;20157;-87
2024/03/21 02:06:21;;;;;;;22.30;6.43;;;9.90;99.90;;;;;;5067607;28;20220;-87
2024/03/21 02:08:48;;;;;;;21.42;5.97;;;9.80;99.90;;;;;;5067908;28;20184;-87
2024/03/21 02:11:14;;;;;;;20.10;6.47;;;9.90;99.90;;;;;;5067691;28;20196;-87
2024/03/21 02:13:40;;;;;;;17.40;5.32;;;9.80;99.90;;;;;;5067405;28;20188;-87
2024/03/21 02:16:06;;;;;;;25.27;6.57;;;9.90;99.90;;;;;;5049845;28;20165;-87
2024/03/21 02:18:32;;;;;;;19.13;5.90;;;9.90;99.90;;;;;;5067071;28;20493;-85
2024/03/21 02:20:58;;;;;;;20.00;6.33;;;9.80;99.90;;;;;;5067762;28;20502;-87
2024/03/21 02:23:23;;;;;;;18.17;5.87;;;9.80;99.90;;;;;;5067585;28;20169;-87
2024/03/21 02:25:49;;;;;;;18.87;6.33;;;9.90;99.90;;;;;;5049772;28;20165;-87
2024/03/21 02:28:14;;;;;;;17.93;5.50;;;9.80;99.90;;;;;;5067657;28;20168;-87
2024/03/21 02:30:41;;;;;;;20.47;5.70;;;9.80;99.90;;;;;;5067878;28;20208;-87
2024/03/21 02:33:07;;;;;;;20.77;6.28;;;9.80;99.90;;;;;;5067684;28;20522;-86
2024/03/21 02:35:32;;;;;;;21.40;7.80;;;9.90;99.90;;;;;;5067310;28;20180;-85
2024/03/21 02:37:58;;;;;;;22.37;6.80;;;9.80;99.90;;;;;;5067015;28;20189;-87
2024/03/21 02:40:24;;;;;;;20.93;5.63;;;9.80;99.90;;;;;;5062131;28;20181;-86
2024/03/21 02:42:49;;;;;;;20.67;7.10;;;9.80;99.90;;;;;;5056741;28;20219;-86
2024/03/21 02:45:15;;;;;;;20.37;7.20;;;9.80;99.90;;;;;;5056723;28;20169;-86
2024/03/21 02:47:41;;;;;;;25.43;6.13;;;9.80;99.90;;;;;;5039436;28;20173;-86
2024/03/21 02:50:08;;;;;;;19.00;6.03;;;9.80;99.90;;;;;;5056304;28;20478;-86
2024/03/21 02:52:34;;;;;;;18.77;5.80;;;9.80;99.90;;;;;;5038951;28;20256;-86
2024/03/21 02:55:00;;;;;;;20.33;6.40;;;9.80;99.90;;;;;;5056871;28;20243;-86
2024/03/21 02:57:25;;;;;;;28.80;8.57;;;10.00;99.90;;;;;;5057932;28;20218;-86
2024/03/21 02:59:51;;;;;;;22.03;6.97;;;9.90;99.90;;;;;;5056402;28;20656;-85
2024/03/21 03:02:17;;;;;;;21.20;7.80;;;10.00;99.90;;;;;;5037930;28;20207;-86
2024/03/21 03:04:43;;;;;;;25.70;8.95;;;10.10;99.90;;;;;;5055363;28;20161;-86
2024/03/21 03:07:09;;;;;;;26.43;9.37;;;10.20;99.90;;;;;;5056131;28;20227;-85
2024/03/21 03:09:34;;;;;;;25.37;8.27;;;10.30;99.90;;;;;;5037900;28;20955;-86
2024/03/21 03:12:00;;;;;;;22.57;7.83;;;10.40;99.90;;;;;;5038410;28;20696;-86
2024/03/21 03:14:26;;;;;;;23.00;8.73;;;10.50;99.90;;;;;;5056228;28;20188;-86
2024/03/21 03:16:51;;;;;;;25.40;7.97;;;10.60;99.90;;;;;;5056765;28;20168;-84
2024/03/21 03:19:17;;;;;;;27.47;9.10;;;10.70;99.90;;;;;;5056260;28;20165;-86
2024/03/21 03:21:42;;;;;;;25.57;9.50;;;10.70;99.90;;;;;;5055568;28;20193;-86
2024/03/21 03:24:08;;;;;;;21.80;7.83;;;10.80;99.90;;;;;;5056223;28;20153;-86
2024/03/21 03:26:34;;;;;;;26.30;9.60;;;10.80;99.90;;;;;;5055709;28;20200;-86
2024/03/21 03:29:00;;;;;;;25.60;8.77;;;10.80;99.90;;;;;;5055968;28;20565;-86
2024/03/21 03:31:26;;;;;;;28.37;9.87;;;10.90;99.90;;;;;;5055660;28;20185;-87
2024/03/21 03:36:36;;;;;;;36.85;12.30;;;10.90;99.90;;;;;;5056154;28;20157;-86
2024/03/21 03:39:03;;;;;;;27.00;10.73;;;10.90;99.90;;;;;;5055780;28;20161;-86
2024/03/21 03:41:28;;;;;;;29.45;10.70;;;10.90;99.90;;;;;;5037589;28;20258;-86
2024/03/21 03:43:54;;;;;;;27.20;11.13;;;10.90;99.90;;;;;;5055861;28;20244;-86
2024/03/21 03:46:20;;;;;;;29.37;12.10;;;10.90;99.90;;;;;;5038231;28;20196;-86
2024/03/21 03:48:45;;;;;;;42.50;13.83;;;11.00;99.90;;;;;;5055911;28;20307;-86
2024/03/21 03:51:11;;;;;;;34.40;15.40;;;11.00;99.90;;;;;;5055303;28;20196;-86
2024/03/21 03:53:37;;;;;;;33.77;14.20;;;11.10;99.90;;;;;;5056260;28;20185;-86
2024/03/21 03:56:02;;;;;;;32.07;15.13;;;11.20;99.90;;;;;;5055626;28;20211;-86
2024/03/21 03:58:28;;;;;;;35.63;16.60;;;11.20;99.90;;;;;;5055737;28;20221;-86
2024/03/21 04:00:58;;;;;;;35.60;17.20;;;11.20;99.90;;;;;;5037843;28;20209;-86
2024/03/21 04:03:24;;;;;;;41.10;19.25;;;11.30;99.90;;;;;;5056256;28;20172;-86
2024/03/21 04:06:00;;;;;;;40.60;20.33;;;11.30;99.90;;;;;;5041921;28;20256;-87
2024/03/21 04:08:26;;;;;;;40.03;20.05;;;11.30;99.90;;;;;;5048803;28;20415;-87
2024/03/21 04:10:54;;;;;;;42.07;19.23;;;11.30;99.90;;;;;;5065723;28;20189;-87
2024/03/21 04:13:20;;;;;;;43.78;21.77;;;11.40;99.90;;;;;;5065227;28;20458;-87
2024/03/21 04:15:56;;;;;;;38.57;20.53;;;11.40;99.90;;;;;;5049460;28;20165;-87
2024/03/21 04:18:23;;;;;;;44.97;21.90;;;11.50;99.90;;;;;;5068983;28;20157;-87
2024/03/21 04:20:52;;;;;;;44.15;21.48;;;11.50;99.90;;;;;;5068994;28;20216;-87
2024/03/21 04:23:19;;;;;;;43.97;21.92;;;11.50;99.90;;;;;;5068459;28;20175;-87
2024/03/21 04:25:44;;;;;;;41.58;20.33;;;11.50;99.90;;;;;;5051313;28;20658;-87
2024/03/21 04:28:10;;;;;;;49.20;21.00;;;11.40;99.90;;;;;;5068576;28;20171;-87
2024/03/21 04:30:38;;;;;;;41.83;20.00;;;11.40;99.90;;;;;;5069027;28;20172;-87
2024/03/21 04:33:05;;;;;;;39.47;20.13;;;11.40;99.90;;;;;;5066974;28;20161;-87
2024/03/21 04:35:30;;;;;;;52.55;21.48;;;11.40;99.90;;;;;;5068240;28;20239;-87
2024/03/21 04:37:57;;;;;;;39.10;20.07;;;11.40;99.90;;;;;;5050690;28;20166;-87
2024/03/21 04:40:23;;;;;;;39.10;21.13;;;11.40;99.90;;;;;;5068512;28;20181;-87
2024/03/21 04:42:51;;;;;;;44.00;22.27;;;11.40;99.90;;;;;;5049829;28;20161;-87
2024/03/21 04:45:18;;;;;;;44.13;20.73;;;11.40;99.90;;;;;;5067762;28;20229;-87
2024/03/21 04:47:47;;;;;;;48.00;22.48;;;11.40;99.90;;;;;;5068132;28;20165;-87
2024/03/21 04:50:12;;;;;;;38.08;20.90;;;11.40;99.90;;;;;;5067769;28;20220;-87
2024/03/21 04:52:40;;;;;;;43.13;20.87;;;11.40;99.90;;;;;;5068364;28;20189;-87
2024/03/21 04:55:06;;;;;;;48.15;21.17;;;11.50;99.90;;;;;;5067742;28;20189;-87
2024/03/21 04:57:32;;;;;;;43.97;20.85;;;11.50;99.90;;;;;;5067019;28;20164;-87
2024/03/21 04:59:58;;;;;;;56.53;21.87;;;11.50;99.90;;;;;;5067265;28;20160;-87
2024/03/21 05:02:24;;;;;;;38.47;19.80;;;11.50;99.90;;;;;;5049111;28;20427;-87
2024/03/21 05:04:49;;;;;;;47.43;21.10;;;11.50;99.90;;;;;;5048842;28;20173;-87
2024/03/21 05:07:15;;;;;;;45.47;20.30;;;11.50;99.90;;;;;;5066833;28;20161;-87
2024/03/21 05:09:41;;;;;;;44.60;18.87;;;11.50;99.90;;;;;;5066836;28;20242;-87
2024/03/21 05:12:07;;;;;;;44.90;23.20;;;11.50;99.90;;;;;;5066545;28;20180;-87
2024/03/21 05:14:35;;;;;;;46.70;23.93;;;11.60;99.90;;;;;;5049406;28;20193;-87
2024/03/21 05:17:01;;;;;;;39.72;19.90;;;11.50;99.90;;;;;;5067392;28;20400;-87
2024/03/21 05:19:27;;;;;;;46.38;22.52;;;11.50;99.90;;;;;;5049213;28;20342;-87
2024/03/21 05:21:53;;;;;;;42.72;21.55;;;11.50;99.90;;;;;;5066213;28;20183;-87
2024/03/21 05:24:28;;;;;;;47.57;20.33;;;11.40;99.90;;;;;;5065847;28;20221;-87
2024/03/21 05:26:54;;;;;;;48.65;22.25;;;11.40;99.90;;;;;;5047386;28;20407;-87
2024/03/21 05:29:19;;;;;;;46.00;23.07;;;11.40;99.90;;;;;;5066601;28;20171;-87
2024/03/21 05:31:45;;;;;;;50.80;21.50;;;11.50;99.90;;;;;;5046054;28;20637;-87
2024/03/21 05:34:13;;;;;;;47.93;22.53;;;11.50;99.90;;;;;;5059725;28;20189;-86
2024/03/21 05:36:39;;;;;;;49.60;24.23;;;11.50;99.90;;;;;;5059143;28;20188;-86
2024/03/21 05:39:06;;;;;;;50.67;22.07;;;11.50;99.90;;;;;;5040816;28;20161;-87
2024/03/21 05:41:32;;;;;;;47.28;21.83;;;11.50;99.90;;;;;;5058686;28;20633;-86
2024/03/21 05:43:57;;;;;;;43.57;21.30;;;11.50;99.90;;;;;;5058486;28;20173;-86
2024/03/21 05:46:26;;;;;;;46.43;20.80;;;11.50;99.90;;;;;;5059202;28;20169;-87
2024/03/21 05:48:54;;;;;;;48.95;23.25;;;11.50;99.90;;;;;;5040924;28;20221;-87
2024/03/21 05:51:19;;;;;;;43.67;23.52;;;11.40;99.90;;;;;;5058627;28;20268;-86
2024/03/21 05:53:45;;;;;;;47.30;22.07;;;11.40;99.90;;;;;;5058255;28;20208;-87
2024/03/21 05:56:11;;;;;;;45.50;21.53;;;11.50;99.90;;;;;;5057995;28;20400;-86
2024/03/21 05:58:37;;;;;;;44.38;23.73;;;11.50;99.90;;;;;;5058392;28;20169;-87
2024/03/21 06:03:35;;;;;;;45.90;22.67;;;11.40;99.90;;;;;;5057369;28;20693;-86
2024/03/21 06:06:01;;;;;;;46.45;23.30;;;11.40;99.90;;;;;;5039084;28;20649;-86
2024/03/21 06:08:27;;;;;;;48.73;24.23;;;11.40;99.90;;;;;;5056917;28;20295;-86
2024/03/21 06:10:53;;;;;;;50.13;21.17;;;11.40;99.90;;;;;;5039211;28;20561;-87
2024/03/21 06:13:19;;;;;;;48.00;23.60;;;11.40;99.90;;;;;;5056979;28;20465;-86
2024/03/21 06:15:45;;;;;;;52.08;21.88;;;11.40;99.90;;;;;;5056971;28;20480;-86
2024/03/21 06:18:11;;;;;;;47.60;23.70;;;11.40;99.90;;;;;;5057017;28;20165;-87
2024/03/21 06:20:36;;;;;;;47.83;22.90;;;11.40;99.90;;;;;;5038981;28;20530;-87
2024/03/21 06:23:02;;;;;;;48.90;23.67;;;11.40;99.90;;;;;;5056962;28;20504;-86
2024/03/21 06:25:28;;;;;;;45.13;22.27;;;11.40;99.90;;;;;;5057289;28;20165;-87
2024/03/21 06:27:56;;;;;;;51.27;24.13;;;11.50;99.90;;;;;;5057226;28;20161;-87
2024/03/21 06:30:22;;;;;;;48.95;22.88;;;11.40;99.90;;;;;;5057505;28;20161;-87
2024/03/21 06:32:48;;;;;;;48.53;23.47;;;11.50;99.90;;;;;;5039442;28;20708;-86
2024/03/21 06:35:14;;;;;;;49.47;22.67;;;11.60;99.90;;;;;;5056936;28;20189;-86
2024/03/21 06:37:40;;;;;;;44.13;23.15;;;11.60;99.90;;;;;;5057573;28;20248;-87
2024/03/21 06:40:06;;;;;;;43.90;23.17;;;11.70;99.90;;;;;;5058412;28;20204;-86
2024/03/21 06:42:35;;;;;;;47.67;22.38;;;11.60;99.90;;;;;;5058968;28;20420;-86
2024/03/21 06:45:01;;;;;;;40.25;18.95;;;11.70;99.90;;;;;;5040613;28;20196;-87
2024/03/21 06:47:27;;;;;;;53.58;21.35;;;11.70;99.90;;;;;;5058712;28;20244;-87
2024/03/21 06:49:59;;;;;;;43.93;21.67;;;11.70;99.90;;;;;;5040602;28;20189;-87
2024/03/21 06:52:24;;;;;;;42.75;21.20;;;11.80;99.90;;;;;;5041127;28;20467;-86
2024/03/21 06:54:51;;;;;;;55.43;20.60;;;11.80;99.90;;;;;;5041380;28;20193;-86
2024/03/21 06:57:17;;;;;;;41.58;21.48;;;11.80;99.90;;;;;;5045311;28;20754;-87
2024/03/21 06:59:43;;;;;;;44.63;21.33;;;11.90;99.90;;;;;;5066415;28;20166;-87
2024/03/21 07:02:08;;;;;;;43.83;20.50;;;11.90;99.90;;;;;;5048167;28;20189;-87
2024/03/21 07:04:35;;;;;;;46.63;22.67;;;11.90;99.90;;;;;;5065699;28;20256;-87
2024/03/21 07:07:00;;;;;;;43.95;22.98;;;12.00;99.90;;;;;;5047978;28;20411;-87
2024/03/21 07:09:26;;;;;;;42.43;21.73;;;12.10;99.90;;;;;;5065569;28;20173;-86
2024/03/21 07:11:52;;;;;;;45.07;21.23;;;12.10;99.90;;;;;;5064632;28;20193;-86
2024/03/21 07:14:17;;;;;;;48.47;24.40;;;12.20;99.90;;;;;;5064330;28;20268;-87
2024/03/21 07:16:44;;;;;;;47.20;23.00;;;12.30;99.90;;;;;;5064388;28;20169;-87
2024/03/21 07:19:10;;;;;;;39.90;20.60;;;12.30;99.90;;;;;;5064247;28;20162;-87
2024/03/21 07:21:35;;;;;;;43.42;22.70;;;12.30;99.90;;;;;;5064251;28;20236;-87
2024/03/21 07:24:02;;;;;;;46.30;22.83;;;12.40;99.90;;;;;;5064164;28;20527;-86
2024/03/21 07:26:29;;;;;;;48.63;23.90;;;12.40;99.90;;;;;;5063120;28;20165;-87
2024/03/21 07:28:54;;;;;;;42.05;21.33;;;12.50;99.90;;;;;;5062407;28;20173;-87
2024/03/21 07:31:20;;;;;;;46.37;21.67;;;12.50;99.90;;;;;;5062371;28;20184;-86
2024/03/21 07:33:51;;;;;;;47.33;23.87;;;12.50;99.90;;;;;;5061954;28;20185;-85
2024/03/21 07:36:18;;;;;;;48.47;24.17;;;12.50;99.90;;;;;;5044885;28;20153;-85
2024/03/21 07:38:44;;;;;;;45.47;23.65;;;12.50;99.90;;;;;;5063150;28;20249;-85
2024/03/21 07:41:09;;;;;;;48.63;22.30;;;12.50;99.90;;;;;;5044379;28;20220;-85
2024/03/21 07:43:35;;;;;;;50.67;21.30;;;12.50;99.90;;;;;;5045267;28;20408;-85
2024/03/21 07:46:01;;;;;;;46.43;22.20;;;12.60;99.90;;;;;;5062849;28;20416;-85
2024/03/21 07:48:26;;;;;;;41.00;21.70;;;12.60;99.90;;;;;;5061935;28;20185;-87
2024/03/21 07:50:52;;;;;;;52.53;23.80;;;12.60;99.90;;;;;;5064602;28;20196;-85
2024/03/21 07:53:18;;;;;;;49.13;24.77;;;12.50;99.90;;;;;;5048454;28;20653;-85
2024/03/21 07:55:43;;;;;;;47.77;22.90;;;12.50;99.90;;;;;;5066631;28;20173;-85
2024/03/21 07:58:09;;;;;;;39.50;20.97;;;12.50;99.90;;;;;;5066685;28;20184;-85
2024/03/21 08:00:35;;;;;;;44.20;21.17;;;12.50;99.90;;;;;;5048740;28;20407;-85
2024/03/21 08:03:00;;;;;;;46.10;23.00;;;12.40;99.90;;;;;;5067010;28;20165;-85
2024/03/21 08:05:26;;;;;;;52.90;24.00;;;12.40;99.90;;;;;;5066875;28;20169;-88
2024/03/21 08:07:52;;;;;;;42.13;22.93;;;12.30;99.90;;;;;;5048093;28;20661;-87
2024/03/21 08:10:17;;;;;;;50.57;24.60;;;12.40;99.90;;;;;;5068183;28;20177;-85
2024/03/21 08:12:43;;;;;;;41.20;22.50;;;12.30;99.90;;;;;;5067129;28;20196;-85
2024/03/21 08:15:09;;;;;;;45.30;22.73;;;12.30;99.90;;;;;;5067116;28;20196;-87
2024/03/21 08:17:34;;;;;;;44.40;22.43;;;12.30;99.90;;;;;;5066955;28;20165;-85
2024/03/21 08:20:01;;;;;;;40.93;21.93;;;12.20;99.90;;;;;;5050864;28;20179;-87
2024/03/21 08:22:27;;;;;;;42.03;20.67;;;12.20;99.90;;;;;;5064799;28;20891;-86
2024/03/21 08:24:53;;;;;;;55.97;25.17;;;12.20;99.90;;;;;;5059642;28;20197;-86
2024/03/21 08:27:19;;;;;;;51.80;22.50;;;12.20;99.90;;;;;;5058768;28;20579;-84
2024/03/21 08:29:46;;;;;;;46.27;24.10;;;12.10;99.90;;;;;;5058066;28;20180;-84
2024/03/21 08:32:13;;;;;;;46.10;22.63;;;12.00;99.90;;;;;;5040347;28;20489;-86
2024/03/21 08:34:39;;;;;;;58.72;24.67;;;11.90;99.90;;;;;;5057717;28;20271;-86
2024/03/21 08:37:05;;;;;;;46.08;22.02;;;11.80;99.90;;;;;;5057842;28;20193;-86
2024/03/21 08:39:30;;;;;;;52.77;23.77;;;11.90;99.90;;;;;;5040033;28;20173;-85
2024/03/21 08:41:56;;;;;;;49.53;25.80;;;11.90;99.90;;;;;;5058300;28;20188;-84
2024/03/21 08:44:22;;;;;;;66.63;27.70;;;11.90;99.90;;;;;;5040419;28;20173;-84
2024/03/21 08:46:47;;;;;;;58.20;26.40;;;11.80;99.90;;;;;;5040229;28;20173;-84
2024/03/21 08:49:13;;;;;;;48.70;24.73;;;11.80;99.90;;;;;;5039924;28;20557;-84
2024/03/21 08:51:39;;;;;;;61.53;27.70;;;11.90;99.90;;;;;;5057777;28;20247;-84
2024/03/21 08:54:06;;;;;;;57.33;27.80;;;11.90;99.90;;;;;;5039611;28;20197;-85
2024/03/21 08:56:34;;;;;;;70.20;27.33;;;11.80;99.90;;;;;;5057997;28;20166;-84
2024/03/21 08:59:00;;;;;;;53.17;26.33;;;11.90;99.90;;;;;;5057549;28;20161;-84
2024/03/21 09:01:25;;;;;;;54.43;24.83;;;11.90;99.90;;;;;;5057848;28;20188;-84
2024/03/21 09:03:51;;;;;;;48.60;24.70;;;12.00;99.90;;;;;;5039895;28;20515;-84
2024/03/21 09:06:18;;;;;;;48.53;21.90;;;12.10;99.90;;;;;;5039537;28;20186;-84
2024/03/21 09:08:44;;;;;;;42.97;20.23;;;11.90;99.90;;;;;;5057580;28;20252;-84
2024/03/21 09:11:10;;;;;;;48.90;23.93;;;11.90;99.90;;;;;;5057500;28;20220;-84
2024/03/21 09:13:36;;;;;;;38.25;19.20;;;11.80;99.90;;;;;;5057830;28;20193;-84
2024/03/21 09:16:02;;;;;;;39.70;20.40;;;11.90;99.90;;;;;;5039182;28;20192;-84
2024/03/21 09:18:27;;;;;;;41.30;18.67;;;11.90;99.90;;;;;;5057353;28;20165;-84
2024/03/21 09:20:55;;;;;;;37.53;16.20;;;11.90;99.90;;;;;;5057324;28;20189;-84
2024/03/21 09:23:22;;;;;;;37.08;14.70;;;11.80;99.90;;;;;;5058328;28;20161;-84
2024/03/21 09:25:48;;;;;;;38.97;14.38;;;11.80;99.90;;;;;;5039249;28;20200;-84
2024/03/21 09:28:17;;;;;;;33.23;15.47;;;11.70;99.90;;;;;;5039575;28;20169;-83
2024/03/21 09:30:45;;;;;;;35.75;12.85;;;11.60;99.90;;;;;;5038982;28;20232;-84
2024/03/21 09:33:11;;;;;;;32.65;14.02;;;11.70;99.90;;;;;;5056660;28;20161;-84
2024/03/21 09:35:37;;;;;;;30.40;11.43;;;11.80;99.90;;;;;;5056313;28;20161;-84
2024/03/21 09:38:03;;;;;;;31.03;12.90;;;11.90;99.90;;;;;;5057219;28;20722;-83
2024/03/21 09:40:29;;;;;;;28.05;11.48;;;11.80;99.90;;;;;;5056118;28;20165;-84
2024/03/21 09:42:56;;;;;;;33.50;13.50;;;11.80;99.90;;;;;;5056843;28;20218;-84
2024/03/21 09:45:24;;;;;;;33.97;12.75;;;11.80;99.90;;;;;;5038639;28;20411;-85
2024/03/21 09:47:50;;;;;;;33.60;14.48;;;11.90;99.90;;;;;;5056393;28;20271;-84
2024/03/21 09:50:18;;;;;;;31.67;13.23;;;11.90;99.90;;;;;;5042366;28;20181;-84
2024/03/21 09:52:44;;;;;;;28.08;11.52;;;11.90;99.90;;;;;;5064728;28;20192;-85
2024/03/21 09:55:14;;;;;;;28.30;12.47;;;12.00;99.90;;;;;;5047171;28;20197;-85
2024/03/21 09:57:44;;;;;;;31.25;12.50;;;12.00;99.90;;;;;;5064926;28;20427;-85
2024/03/21 10:00:12;;;;;;;31.42;13.10;;;12.10;99.90;;;;;;5065136;28;20638;-85
2024/03/21 10:02:38;;;;;;;32.72;12.80;;;12.30;99.90;;;;;;5064645;28;20184;-85
2024/03/21 10:05:05;;;;;;;34.10;13.45;;;12.60;99.90;;;;;;5047187;28;20630;-85
2024/03/21 10:07:35;;;;;;;32.25;13.57;;;12.70;99.90;;;;;;5047432;28;20537;-85
2024/03/21 10:10:02;;;;;;;33.05;13.25;;;12.90;99.90;;;;;;5048055;28;20645;-85
2024/03/21 10:12:28;;;;;;;33.53;14.10;;;13.00;99.90;;;;;;5064695;28;20215;-85
2024/03/21 10:14:59;;;;;;;28.47;13.33;;;12.90;97.40;;;;;;5063638;28;20185;-85
2024/03/21 10:17:26;;;;;;;36.10;16.15;;;12.90;99.90;;;;;;5047718;28;20157;-85
2024/03/21 10:19:53;;;;;;;30.50;13.13;;;12.90;99.10;;;;;;5046148;28;20187;-85
2024/03/21 10:22:23;;;;;;;34.88;14.30;;;12.90;99.40;;;;;;5046705;28;20200;-85
2024/03/21 10:24:56;;;;;;;31.90;13.70;;;12.90;99.90;;;;;;5046551;28;20673;-85
2024/03/21 10:27:23;;;;;;;37.92;12.05;;;12.90;98.50;;;;;;5064618;28;20204;-85
2024/03/21 10:29:52;;;;;;;33.45;11.88;;;13.00;98.00;;;;;;5064434;28;20184;-85
2024/03/21 10:32:22;;;;;;;37.47;15.80;;;13.10;90.10;;;;;;5046322;28;20196;-85
2024/03/21 10:34:49;;;;;;;37.17;18.50;;;13.10;80.30;;;;;;5064005;28;20444;-85
2024/03/21 10:37:17;;;;;;;32.03;17.10;;;13.20;87.50;;;;;;5045453;28;20464;-85
2024/03/21 10:39:43;;;;;;;26.23;11.20;;;13.40;85.50;;;;;;5062964;28;20638;-85
2024/03/21 10:42:32;;;;;;;24.50;10.27;;;13.60;81.80;;;;;;5045493;28;20430;-85
2024/03/21 10:45:01;;;;;;;28.13;12.68;;;13.60;59.00;;;;;;5063667;28;20464;-85
2024/03/21 10:47:27;;;;;;;30.30;11.27;;;13.70;60.90;;;;;;5045639;28;20173;-85
2024/03/21 10:49:53;;;;;;;25.17;11.03;;;13.80;59.90;;;;;;5062332;28;20803;-85
2024/03/21 10:52:20;;;;;;;25.93;9.67;;;13.90;53.10;;;;;;5063186;28;20442;-85
2024/03/21 10:54:53;;;;;;;28.83;11.57;;;14.10;49.10;;;;;;5063795;28;20481;-85
2024/03/21 10:57:23;;;;;;;31.57;10.67;;;14.20;13.50;;;;;;5046945;28;20396;-85
2024/03/21 10:59:56;;;;;;;27.57;11.33;;;14.30;18.20;;;;;;5044316;28;20414;-85
2024/03/21 11:02:31;;;;;;;27.60;11.40;;;14.30;1.00;;;;;;5064256;28;20430;-85
2024/03/21 11:05:09;;;;;;;27.83;11.70;;;14.10;1.00;;;;;;5063981;28;20379;-85
2024/03/21 11:07:36;;;;;;;30.97;11.10;;;14.00;1.00;;;;;;5063147;28;20395;-86
2024/03/21 11:10:02;;;;;;;26.83;10.43;;;14.00;1.00;;;;;;5063185;28;20466;-85
2024/03/21 11:12:29;;;;;;;27.27;10.47;;;13.90;1.20;;;;;;5063520;28;20427;-85
2024/03/21 11:14:55;;;;;;;24.47;9.77;;;13.80;1.00;;;;;;5046351;28;20881;-85
2024/03/21 11:17:21;;;;;;;27.30;10.20;;;13.80;1.00;;;;;;5042503;28;20415;-85
2024/03/21 11:19:50;;;;;;;29.67;11.00;;;13.80;1.00;;;;;;5058924;28;20609;-85
2024/03/21 11:22:16;;;;;;;27.33;9.87;;;13.80;1.00;;;;;;5059068;28;20230;-84
2024/03/21 11:24:43;;;;;;;26.60;10.30;;;13.60;1.00;;;;;;5040255;28;20483;-85
2024/03/21 11:27:19;;;;;;;25.80;10.90;;;13.50;1.00;;;;;;5061266;28;20411;-84
2024/03/21 11:29:45;;;;;;;25.13;9.37;;;13.50;1.00;;;;;;5061784;28;20438;-84
2024/03/21 11:32:19;;;;;;;21.80;7.65;;;13.50;1.00;;;;;;5062334;28;20473;-84
2024/03/21 11:34:46;;;;;;;23.47;6.77;;;13.50;1.00;;;;;;5043125;28;20189;-85
2024/03/21 11:37:14;;;;;;;21.23;8.20;;;13.50;1.00;;;;;;5043721;28;20407;-84
2024/03/21 11:39:40;;;;;;;18.73;7.13;;;13.50;1.00;;;;;;5043461;28;20406;-84
2024/03/21 11:42:14;;;;;;;24.17;8.37;;;13.50;1.00;;;;;;5042875;28;20185;-84
2024/03/21 11:44:41;;;;;;;21.27;7.43;;;13.70;1.00;;;;;;5061496;28;20384;-84
2024/03/21 11:47:16;;;;;;;22.17;7.07;;;13.80;1.00;;;;;;5043264;28;20769;-83
2024/03/21 11:49:42;;;;;;;23.77;9.07;;;13.70;1.00;;;;;;5061342;28;20457;-84
2024/03/21 11:52:14;;;;;;;25.50;9.27;;;13.70;1.00;;;;;;5043162;28;20420;-84
2024/03/21 11:54:43;;;;;;;24.77;9.53;;;13.70;1.00;;;;;;5043479;28;20442;-84
2024/03/21 11:57:13;;;;;;;22.73;7.00;;;13.80;1.00;;;;;;5043206;28;20912;-84
2024/03/21 11:59:41;;;;;;;21.50;8.37;;;14.10;1.00;;;;;;5060432;28;20468;-84
2024/03/21 12:02:17;;;;;;;23.90;7.27;;;14.30;1.00;;;;;;5060651;28;20423;-84
2024/03/21 12:04:43;;;;;;;18.93;6.90;;;14.20;1.00;;;;;;5044461;28;20486;-84
2024/03/21 12:07:11;;;;;;;20.43;6.40;;;14.20;1.00;;;;;;5044077;28;20851;-84
2024/03/21 12:09:37;;;;;;;23.27;7.50;;;14.30;1.00;;;;;;5061037;28;20430;-84
2024/03/21 12:12:02;;;;;;;21.80;8.17;;;14.40;1.00;;;;;;5061461;28;20451;-85
2024/03/21 12:14:28;;;;;;;22.77;7.23;;;14.40;1.00;;;;;;5061195;28;20224;-85
2024/03/21 12:16:54;;;;;;;21.20;8.07;;;14.40;1.00;;;;;;5043510;28;20502;-84
2024/03/21 12:19:20;;;;;;;22.40;7.33;;;14.50;1.00;;;;;;5043230;28;20165;-84
2024/03/21 12:21:46;;;;;;;18.93;6.70;;;14.40;1.00;;;;;;5042942;28;20562;-85
2024/03/21 12:24:12;;;;;;;23.10;7.07;;;14.40;1.00;;;;;;5042795;28;20237;-85
2024/03/21 12:26:37;;;;;;;20.43;6.40;;;14.50;1.00;;;;;;5060841;28;20407;-85
2024/03/21 12:29:03;;;;;;;18.70;5.30;;;14.50;1.00;;;;;;5059917;28;20407;-84
2024/03/21 12:31:29;;;;;;;20.17;6.43;;;14.50;1.00;;;;;;5058437;28;20185;-84
2024/03/21 12:33:56;;;;;;;20.10;7.70;;;14.50;1.00;;;;;;5040404;28;20207;-84
2024/03/21 12:36:22;;;;;;;21.57;6.97;;;14.50;1.00;;;;;;5058271;28;20403;-84